sensor_id;sensor_type;location;lat;lon;timestamp;temperature;humidity
3542;DHT22;1785;47.388;8.538;2022-07-09T00:01:31;22.60;87.30
3542;DHT22;1785;47.388;8.538;2022-07-09T00:03:57;22.70;87.10
3542;DHT22;1785;47.388;8.538;2022-07-09T00:06:23;22.60;86.80
3542;DHT22;1785;47.388;8.538;2022-07-09T00:08:49;22.50;87.00
3542;DHT22;1785;47.388;8.538;2022-07-09T00:11:16;22.30;87.30
3542;DHT22;1785;47.388;8.538;2022-07-09T00:13:42;22.50;86.80
3542;DHT22;1785;47.388;8.538;2022-07-09T00:16:08;22.30;87.40
3542;DHT22;1785;47.388;8.538;2022-07-09T00:18:34;22.00;88.10
3542;DHT22;1785;47.388;8.538;2022-07-09T00:21:00;21.90;88.60
3542;DHT22;1785;47.388;8.538;2022-07-09T00:23:27;22.00;87.90
3542;DHT22;1785;47.388;8.538;2022-07-09T00:25:53;22.20;87.90
3542;DHT22;1785;47.388;8.538;2022-07-09T00:28:19;22.20;87.70
3542;DHT22;1785;47.388;8.538;2022-07-09T00:30:45;22.40;87.70
3542;DHT22;1785;47.388;8.538;2022-07-09T00:33:11;22.30;87.50
3542;DHT22;1785;47.388;8.538;2022-07-09T00:35:37;22.30;88.20
3542;DHT22;1785;47.388;8.538;2022-07-09T00:38:03;22.30;87.60
3542;DHT22;1785;47.388;8.538;2022-07-09T00:40:30;22.30;87.50
3542;DHT22;1785;47.388;8.538;2022-07-09T00:42:57;22.40;87.10
3542;DHT22;1785;47.388;8.538;2022-07-09T00:45:23;22.20;87.80
3542;DHT22;1785;47.388;8.538;2022-07-09T00:47:49;22.00;88.90
3542;DHT22;1785;47.388;8.538;2022-07-09T00:50:15;21.90;88.30
3542;DHT22;1785;47.388;8.538;2022-07-09T00:52:41;22.00;88.30
3542;DHT22;1785;47.388;8.538;2022-07-09T00:55:10;22.10;88.40
3542;DHT22;1785;47.388;8.538;2022-07-09T00:57:38;22.10;88.20
3542;DHT22;1785;47.388;8.538;2022-07-09T01:00:05;22.20;87.80
3542;DHT22;1785;47.388;8.538;2022-07-09T01:02:32;21.60;88.90
3542;DHT22;1785;47.388;8.538;2022-07-09T01:04:58;21.40;89.80
3542;DHT22;1785;47.388;8.538;2022-07-09T01:07:24;21.60;89.20
3542;DHT22;1785;47.388;8.538;2022-07-09T01:09:50;21.80;89.00
3542;DHT22;1785;47.388;8.538;2022-07-09T01:12:16;21.30;89.10
3542;DHT22;1785;47.388;8.538;2022-07-09T01:14:43;21.40;89.70
3542;DHT22;1785;47.388;8.538;2022-07-09T01:17:09;21.30;90.00
3542;DHT22;1785;47.388;8.538;2022-07-09T01:19:35;21.20;89.80
3542;DHT22;1785;47.388;8.538;2022-07-09T01:22:02;21.30;89.70
3542;DHT22;1785;47.388;8.538;2022-07-09T01:24:28;20.90;90.10
3542;DHT22;1785;47.388;8.538;2022-07-09T01:26:55;20.60;90.50
3542;DHT22;1785;47.388;8.538;2022-07-09T01:29:21;20.70;90.30
3542;DHT22;1785;47.388;8.538;2022-07-09T01:31:47;20.50;90.10
3542;DHT22;1785;47.388;8.538;2022-07-09T01:34:13;20.50;90.40
3542;DHT22;1785;47.388;8.538;2022-07-09T01:36:39;20.50;90.20
3542;DHT22;1785;47.388;8.538;2022-07-09T01:39:06;20.30;90.20
3542;DHT22;1785;47.388;8.538;2022-07-09T01:41:32;20.50;90.30
3542;DHT22;1785;47.388;8.538;2022-07-09T01:43:58;20.70;90.20
3542;DHT22;1785;47.388;8.538;2022-07-09T01:46:24;20.80;90.10
3542;DHT22;1785;47.388;8.538;2022-07-09T01:48:50;20.80;89.80
3542;DHT22;1785;47.388;8.538;2022-07-09T01:51:16;20.60;90.20
3542;DHT22;1785;47.388;8.538;2022-07-09T01:53:42;20.60;90.40
3542;DHT22;1785;47.388;8.538;2022-07-09T01:56:10;20.70;90.40
3542;DHT22;1785;47.388;8.538;2022-07-09T01:58:36;20.80;90.20
3542;DHT22;1785;47.388;8.538;2022-07-09T02:01:03;20.60;90.30
3542;DHT22;1785;47.388;8.538;2022-07-09T02:03:29;20.70;90.20
3542;DHT22;1785;47.388;8.538;2022-07-09T02:05:55;20.90;90.10
3542;DHT22;1785;47.388;8.538;2022-07-09T02:08:22;20.80;89.80
3542;DHT22;1785;47.388;8.538;2022-07-09T02:10:48;20.40;90.50
3542;DHT22;1785;47.388;8.538;2022-07-09T02:13:15;20.00;91.00
3542;DHT22;1785;47.388;8.538;2022-07-09T02:15:41;19.80;91.60
3542;DHT22;1785;47.388;8.538;2022-07-09T02:18:07;19.50;92.30
3542;DHT22;1785;47.388;8.538;2022-07-09T02:20:33;19.30;92.90
3542;DHT22;1785;47.388;8.538;2022-07-09T02:22:59;19.00;93.20
3542;DHT22;1785;47.388;8.538;2022-07-09T02:25:26;18.90;93.50
3542;DHT22;1785;47.388;8.538;2022-07-09T02:27:53;18.50;94.10
3542;DHT22;1785;47.388;8.538;2022-07-09T02:30:20;18.30;94.50
3542;DHT22;1785;47.388;8.538;2022-07-09T02:32:46;18.10;94.90
3542;DHT22;1785;47.388;8.538;2022-07-09T02:35:12;18.10;95.00
3542;DHT22;1785;47.388;8.538;2022-07-09T02:37:38;18.40;94.90
3542;DHT22;1785;47.388;8.538;2022-07-09T02:40:05;18.80;94.30
3542;DHT22;1785;47.388;8.538;2022-07-09T02:42:32;18.90;94.00
3542;DHT22;1785;47.388;8.538;2022-07-09T02:44:58;19.20;93.80
3542;DHT22;1785;47.388;8.538;2022-07-09T02:47:24;19.20;93.70
3542;DHT22;1785;47.388;8.538;2022-07-09T02:49:51;19.30;93.60
3542;DHT22;1785;47.388;8.538;2022-07-09T02:52:17;19.40;93.30
3542;DHT22;1785;47.388;8.538;2022-07-09T02:54:43;19.70;93.10
3542;DHT22;1785;47.388;8.538;2022-07-09T02:57:09;19.60;92.80
3542;DHT22;1785;47.388;8.538;2022-07-09T02:59:35;19.90;92.60
3542;DHT22;1785;47.388;8.538;2022-07-09T03:02:01;19.50;92.70
3542;DHT22;1785;47.388;8.538;2022-07-09T03:04:28;19.00;93.40
3542;DHT22;1785;47.388;8.538;2022-07-09T03:06:54;18.80;93.80
3542;DHT22;1785;47.388;8.538;2022-07-09T03:09:20;19.00;93.70
3542;DHT22;1785;47.388;8.538;2022-07-09T03:11:46;18.80;93.80
3542;DHT22;1785;47.388;8.538;2022-07-09T03:14:12;19.20;93.50
3542;DHT22;1785;47.388;8.538;2022-07-09T03:16:38;19.40;93.30
3542;DHT22;1785;47.388;8.538;2022-07-09T03:19:04;19.60;93.00
3542;DHT22;1785;47.388;8.538;2022-07-09T03:21:31;19.40;92.90
3542;DHT22;1785;47.388;8.538;2022-07-09T03:23:58;18.80;93.90
3542;DHT22;1785;47.388;8.538;2022-07-09T03:26:24;18.50;94.20
3542;DHT22;1785;47.388;8.538;2022-07-09T03:28:50;18.50;94.40
3542;DHT22;1785;47.388;8.538;2022-07-09T03:31:16;18.80;94.40
3542;DHT22;1785;47.388;8.538;2022-07-09T03:33:42;19.10;94.00
3542;DHT22;1785;47.388;8.538;2022-07-09T03:36:08;19.40;93.70
3542;DHT22;1785;47.388;8.538;2022-07-09T03:38:35;19.30;93.80
3542;DHT22;1785;47.388;8.538;2022-07-09T03:41:01;19.20;94.00
3542;DHT22;1785;47.388;8.538;2022-07-09T03:43:28;19.00;94.20
3542;DHT22;1785;47.388;8.538;2022-07-09T03:45:54;18.70;94.70
3542;DHT22;1785;47.388;8.538;2022-07-09T03:48:20;18.90;94.30
3542;DHT22;1785;47.388;8.538;2022-07-09T03:50:46;19.20;94.10
3542;DHT22;1785;47.388;8.538;2022-07-09T03:53:12;19.30;93.80
3542;DHT22;1785;47.388;8.538;2022-07-09T03:55:39;19.40;93.70
3542;DHT22;1785;47.388;8.538;2022-07-09T03:58:05;19.10;93.90
3542;DHT22;1785;47.388;8.538;2022-07-09T04:00:31;18.90;94.20
3542;DHT22;1785;47.388;8.538;2022-07-09T04:02:57;18.90;94.30
3542;DHT22;1785;47.388;8.538;2022-07-09T04:05:24;18.80;94.40
3542;DHT22;1785;47.388;8.538;2022-07-09T04:07:50;18.80;94.60
3542;DHT22;1785;47.388;8.538;2022-07-09T04:10:16;18.50;94.50
3542;DHT22;1785;47.388;8.538;2022-07-09T04:12:43;18.60;94.60
3542;DHT22;1785;47.388;8.538;2022-07-09T04:15:10;19.00;94.20
3542;DHT22;1785;47.388;8.538;2022-07-09T04:17:36;19.00;94.20
3542;DHT22;1785;47.388;8.538;2022-07-09T04:20:03;18.60;94.30
3542;DHT22;1785;47.388;8.538;2022-07-09T04:22:29;18.40;94.80
3542;DHT22;1785;47.388;8.538;2022-07-09T04:24:55;18.40;94.60
3542;DHT22;1785;47.388;8.538;2022-07-09T04:27:21;18.50;94.80
3542;DHT22;1785;47.388;8.538;2022-07-09T04:29:48;18.80;94.40
3542;DHT22;1785;47.388;8.538;2022-07-09T04:32:14;19.10;94.00
3542;DHT22;1785;47.388;8.538;2022-07-09T04:34:41;18.90;94.20
3542;DHT22;1785;47.388;8.538;2022-07-09T04:37:07;18.80;94.00
3542;DHT22;1785;47.388;8.538;2022-07-09T04:39:33;18.10;94.60
3542;DHT22;1785;47.388;8.538;2022-07-09T04:41:59;17.80;95.00
3542;DHT22;1785;47.388;8.538;2022-07-09T04:44:25;18.00;95.20
3542;DHT22;1785;47.388;8.538;2022-07-09T04:46:52;18.00;95.20
3542;DHT22;1785;47.388;8.538;2022-07-09T04:49:18;17.90;95.20
3542;DHT22;1785;47.388;8.538;2022-07-09T04:51:44;17.90;95.40
3542;DHT22;1785;47.388;8.538;2022-07-09T04:54:10;18.10;95.30
3542;DHT22;1785;47.388;8.538;2022-07-09T04:56:36;17.90;95.50
3542;DHT22;1785;47.388;8.538;2022-07-09T04:59:02;18.00;95.60
3542;DHT22;1785;47.388;8.538;2022-07-09T05:01:29;18.10;95.40
3542;DHT22;1785;47.388;8.538;2022-07-09T05:03:56;18.00;95.70
3542;DHT22;1785;47.388;8.538;2022-07-09T05:06:22;18.20;95.30
3542;DHT22;1785;47.388;8.538;2022-07-09T05:08:48;18.10;95.50
3542;DHT22;1785;47.388;8.538;2022-07-09T05:11:14;18.10;95.60
3542;DHT22;1785;47.388;8.538;2022-07-09T05:13:40;18.50;95.40
3542;DHT22;1785;47.388;8.538;2022-07-09T05:16:07;18.50;95.30
3542;DHT22;1785;47.388;8.538;2022-07-09T05:18:34;18.30;95.30
3542;DHT22;1785;47.388;8.538;2022-07-09T05:21:01;18.40;95.50
3542;DHT22;1785;47.388;8.538;2022-07-09T05:23:27;18.30;95.70
3542;DHT22;1785;47.388;8.538;2022-07-09T05:25:53;18.40;95.70
3542;DHT22;1785;47.388;8.538;2022-07-09T05:28:19;18.60;95.70
3542;DHT22;1785;47.388;8.538;2022-07-09T05:30:46;18.90;95.20
3542;DHT22;1785;47.388;8.538;2022-07-09T05:33:12;19.30;94.90
3542;DHT22;1785;47.388;8.538;2022-07-09T05:35:38;19.40;94.70
3542;DHT22;1785;47.388;8.538;2022-07-09T05:38:05;19.50;94.70
3542;DHT22;1785;47.388;8.538;2022-07-09T05:40:31;19.50;95.00
3542;DHT22;1785;47.388;8.538;2022-07-09T05:42:57;19.60;94.50
3542;DHT22;1785;47.388;8.538;2022-07-09T05:45:23;19.70;94.60
3542;DHT22;1785;47.388;8.538;2022-07-09T05:47:49;19.60;94.50
3542;DHT22;1785;47.388;8.538;2022-07-09T05:50:15;19.70;94.50
3542;DHT22;1785;47.388;8.538;2022-07-09T05:52:41;19.80;94.50
3542;DHT22;1785;47.388;8.538;2022-07-09T05:55:08;19.90;94.50
3542;DHT22;1785;47.388;8.538;2022-07-09T05:57:35;20.20;94.10
3542;DHT22;1785;47.388;8.538;2022-07-09T06:00:01;20.30;94.00
3542;DHT22;1785;47.388;8.538;2022-07-09T06:02:28;20.20;94.00
3542;DHT22;1785;47.388;8.538;2022-07-09T06:04:54;20.40;93.90
3542;DHT22;1785;47.388;8.538;2022-07-09T06:07:21;20.40;93.80
3542;DHT22;1785;47.388;8.538;2022-07-09T06:09:47;20.50;93.60
3542;DHT22;1785;47.388;8.538;2022-07-09T06:12:14;20.30;93.70
3542;DHT22;1785;47.388;8.538;2022-07-09T06:14:40;20.10;95.00
3542;DHT22;1785;47.388;8.538;2022-07-09T06:17:06;20.50;94.20
3542;DHT22;1785;47.388;8.538;2022-07-09T06:19:33;20.60;94.40
3542;DHT22;1785;47.388;8.538;2022-07-09T06:21:59;20.70;94.00
3542;DHT22;1785;47.388;8.538;2022-07-09T06:24:25;20.60;93.90
3542;DHT22;1785;47.388;8.538;2022-07-09T06:26:51;20.50;94.00
3542;DHT22;1785;47.388;8.538;2022-07-09T06:29:18;20.70;94.50
3542;DHT22;1785;47.388;8.538;2022-07-09T06:31:44;21.10;94.00
3542;DHT22;1785;47.388;8.538;2022-07-09T06:34:10;21.20;94.10
3542;DHT22;1785;47.388;8.538;2022-07-09T06:36:37;21.20;93.60
3542;DHT22;1785;47.388;8.538;2022-07-09T06:39:03;21.30;93.30
3542;DHT22;1785;47.388;8.538;2022-07-09T06:41:48;21.50;94.20
3542;DHT22;1785;47.388;8.538;2022-07-09T06:44:14;21.60;93.00
3542;DHT22;1785;47.388;8.538;2022-07-09T06:46:40;21.20;93.00
3542;DHT22;1785;47.388;8.538;2022-07-09T06:49:07;21.20;94.30
3542;DHT22;1785;47.388;8.538;2022-07-09T06:51:33;21.50;93.20
3542;DHT22;1785;47.388;8.538;2022-07-09T06:53:59;21.60;92.70
3542;DHT22;1785;47.388;8.538;2022-07-09T06:56:25;21.40;92.90
3542;DHT22;1785;47.388;8.538;2022-07-09T06:58:51;21.30;93.80
3542;DHT22;1785;47.388;8.538;2022-07-09T07:01:17;21.20;93.00
3542;DHT22;1785;47.388;8.538;2022-07-09T07:03:44;21.30;93.00
3542;DHT22;1785;47.388;8.538;2022-07-09T07:06:10;21.10;93.20
3542;DHT22;1785;47.388;8.538;2022-07-09T07:08:36;20.80;93.20
3542;DHT22;1785;47.388;8.538;2022-07-09T07:11:02;21.00;94.20
3542;DHT22;1785;47.388;8.538;2022-07-09T07:13:28;21.10;93.70
3542;DHT22;1785;47.388;8.538;2022-07-09T07:15:54;21.10;93.10
3542;DHT22;1785;47.388;8.538;2022-07-09T07:18:20;20.70;93.60
3542;DHT22;1785;47.388;8.538;2022-07-09T07:20:47;20.90;93.70
3542;DHT22;1785;47.388;8.538;2022-07-09T07:23:15;21.10;93.40
3542;DHT22;1785;47.388;8.538;2022-07-09T07:25:41;21.20;93.20
3542;DHT22;1785;47.388;8.538;2022-07-09T07:28:07;21.30;93.20
3542;DHT22;1785;47.388;8.538;2022-07-09T07:30:33;21.20;93.90
3542;DHT22;1785;47.388;8.538;2022-07-09T07:33:00;21.30;93.80
3542;DHT22;1785;47.388;8.538;2022-07-09T07:35:26;21.20;93.60
3542;DHT22;1785;47.388;8.538;2022-07-09T07:37:53;21.50;93.30
3542;DHT22;1785;47.388;8.538;2022-07-09T07:40:19;21.70;93.00
3542;DHT22;1785;47.388;8.538;2022-07-09T07:42:45;21.70;93.00
3542;DHT22;1785;47.388;8.538;2022-07-09T07:45:11;21.50;93.10
3542;DHT22;1785;47.388;8.538;2022-07-09T07:47:37;21.60;93.30
3542;DHT22;1785;47.388;8.538;2022-07-09T07:50:05;21.60;92.90
3542;DHT22;1785;47.388;8.538;2022-07-09T07:52:31;21.60;92.80
3542;DHT22;1785;47.388;8.538;2022-07-09T07:54:58;21.60;92.70
3542;DHT22;1785;47.388;8.538;2022-07-09T07:57:24;21.40;92.70
3542;DHT22;1785;47.388;8.538;2022-07-09T07:59:50;21.50;92.60
3542;DHT22;1785;47.388;8.538;2022-07-09T08:02:16;21.60;92.50
3542;DHT22;1785;47.388;8.538;2022-07-09T08:04:42;21.80;92.60
3542;DHT22;1785;47.388;8.538;2022-07-09T08:07:08;21.80;92.70
3542;DHT22;1785;47.388;8.538;2022-07-09T08:09:34;22.00;92.50
3542;DHT22;1785;47.388;8.538;2022-07-09T08:12:01;21.60;92.50
3542;DHT22;1785;47.388;8.538;2022-07-09T08:14:28;21.30;93.20
3542;DHT22;1785;47.388;8.538;2022-07-09T08:16:54;21.50;93.20
3542;DHT22;1785;47.388;8.538;2022-07-09T08:19:20;21.70;93.20
3542;DHT22;1785;47.388;8.538;2022-07-09T08:21:46;21.90;93.30
3542;DHT22;1785;47.388;8.538;2022-07-09T08:24:12;21.80;93.20
3542;DHT22;1785;47.388;8.538;2022-07-09T08:26:38;21.80;92.70
3542;DHT22;1785;47.388;8.538;2022-07-09T08:29:05;21.90;92.70
3542;DHT22;1785;47.388;8.538;2022-07-09T08:31:31;22.00;92.20
3542;DHT22;1785;47.388;8.538;2022-07-09T08:33:57;22.20;91.80
3542;DHT22;1785;47.388;8.538;2022-07-09T08:36:23;22.30;91.80
3542;DHT22;1785;47.388;8.538;2022-07-09T08:38:49;22.10;92.40
3542;DHT22;1785;47.388;8.538;2022-07-09T08:41:15;22.00;92.00
3542;DHT22;1785;47.388;8.538;2022-07-09T08:43:48;22.10;92.30
3542;DHT22;1785;47.388;8.538;2022-07-09T08:46:16;22.10;91.40
3542;DHT22;1785;47.388;8.538;2022-07-09T08:48:43;22.10;91.40
3542;DHT22;1785;47.388;8.538;2022-07-09T08:51:10;22.30;91.40
3542;DHT22;1785;47.388;8.538;2022-07-09T08:53:40;22.40;91.20
3542;DHT22;1785;47.388;8.538;2022-07-09T08:56:07;22.40;90.60
3542;DHT22;1785;47.388;8.538;2022-07-09T08:58:33;22.70;90.10
3542;DHT22;1785;47.388;8.538;2022-07-09T09:00:59;22.80;89.10
3542;DHT22;1785;47.388;8.538;2022-07-09T09:03:26;22.90;89.60
3542;DHT22;1785;47.388;8.538;2022-07-09T09:06:02;23.10;90.50
3542;DHT22;1785;47.388;8.538;2022-07-09T09:08:34;23.00;90.30
3542;DHT22;1785;47.388;8.538;2022-07-09T09:11:01;23.00;90.10
3542;DHT22;1785;47.388;8.538;2022-07-09T09:13:27;23.20;89.10
3542;DHT22;1785;47.388;8.538;2022-07-09T09:16:02;23.30;89.30
3542;DHT22;1785;47.388;8.538;2022-07-09T09:18:29;23.20;89.80
3542;DHT22;1785;47.388;8.538;2022-07-09T09:21:02;23.20;89.60
3542;DHT22;1785;47.388;8.538;2022-07-09T09:23:28;23.10;89.40
3542;DHT22;1785;47.388;8.538;2022-07-09T09:25:54;23.30;88.40
3542;DHT22;1785;47.388;8.538;2022-07-09T09:28:20;23.30;88.10
3542;DHT22;1785;47.388;8.538;2022-07-09T09:30:46;23.40;88.20
3542;DHT22;1785;47.388;8.538;2022-07-09T09:33:14;23.20;87.60
3542;DHT22;1785;47.388;8.538;2022-07-09T09:35:43;23.50;86.50
3542;DHT22;1785;47.388;8.538;2022-07-09T09:38:10;23.50;83.40
3542;DHT22;1785;47.388;8.538;2022-07-09T09:40:36;23.70;84.10
3542;DHT22;1785;47.388;8.538;2022-07-09T09:43:03;23.60;82.60
3542;DHT22;1785;47.388;8.538;2022-07-09T09:45:29;23.60;81.60
3542;DHT22;1785;47.388;8.538;2022-07-09T09:47:57;23.70;82.90
3542;DHT22;1785;47.388;8.538;2022-07-09T09:50:25;23.80;83.00
3542;DHT22;1785;47.388;8.538;2022-07-09T09:52:53;23.90;82.50
3542;DHT22;1785;47.388;8.538;2022-07-09T09:55:21;24.00;82.60
3542;DHT22;1785;47.388;8.538;2022-07-09T09:57:48;23.90;80.90
3542;DHT22;1785;47.388;8.538;2022-07-09T10:00:15;24.10;80.20
3542;DHT22;1785;47.388;8.538;2022-07-09T10:02:43;24.20;80.80
3542;DHT22;1785;47.388;8.538;2022-07-09T10:05:10;24.20;81.30
3542;DHT22;1785;47.388;8.538;2022-07-09T10:07:36;24.20;81.20
3542;DHT22;1785;47.388;8.538;2022-07-09T10:10:06;24.20;80.50
3542;DHT22;1785;47.388;8.538;2022-07-09T10:12:34;24.30;80.20
3542;DHT22;1785;47.388;8.538;2022-07-09T10:15:00;24.50;80.40
3542;DHT22;1785;47.388;8.538;2022-07-09T10:17:27;24.60;82.30
3542;DHT22;1785;47.388;8.538;2022-07-09T10:19:54;24.60;81.60
3542;DHT22;1785;47.388;8.538;2022-07-09T10:22:21;24.60;79.20
3542;DHT22;1785;47.388;8.538;2022-07-09T10:24:50;24.60;80.80
3542;DHT22;1785;47.388;8.538;2022-07-09T10:27:17;24.80;82.80
3542;DHT22;1785;47.388;8.538;2022-07-09T10:29:54;24.70;83.30
3542;DHT22;1785;47.388;8.538;2022-07-09T10:32:27;24.60;81.90
3542;DHT22;1785;47.388;8.538;2022-07-09T10:34:58;24.50;81.70
3542;DHT22;1785;47.388;8.538;2022-07-09T10:37:34;24.50;81.50
3542;DHT22;1785;47.388;8.538;2022-07-09T10:40:11;24.20;79.80
3542;DHT22;1785;47.388;8.538;2022-07-09T10:42:39;23.90;80.60
3542;DHT22;1785;47.388;8.538;2022-07-09T10:45:19;24.00;81.80
3542;DHT22;1785;47.388;8.538;2022-07-09T10:47:50;24.30;81.30
3542;DHT22;1785;47.388;8.538;2022-07-09T10:50:17;24.60;79.40
3542;DHT22;1785;47.388;8.538;2022-07-09T10:52:44;24.70;77.60
3542;DHT22;1785;47.388;8.538;2022-07-09T10:55:11;25.00;78.30
3542;DHT22;1785;47.388;8.538;2022-07-09T10:57:38;25.30;76.00
3542;DHT22;1785;47.388;8.538;2022-07-09T11:00:06;25.40;76.30
3542;DHT22;1785;47.388;8.538;2022-07-09T11:02:33;25.60;78.50
3542;DHT22;1785;47.388;8.538;2022-07-09T11:04:59;25.50;80.60
3542;DHT22;1785;47.388;8.538;2022-07-09T11:07:25;25.40;80.90
3542;DHT22;1785;47.388;8.538;2022-07-09T11:09:53;24.90;84.10
3542;DHT22;1785;47.388;8.538;2022-07-09T11:12:20;25.00;83.30
3542;DHT22;1785;47.388;8.538;2022-07-09T11:14:49;25.20;83.80
3542;DHT22;1785;47.388;8.538;2022-07-09T11:17:16;25.30;85.40
3542;DHT22;1785;47.388;8.538;2022-07-09T11:19:42;25.50;84.50
3542;DHT22;1785;47.388;8.538;2022-07-09T11:22:08;25.70;85.00
3542;DHT22;1785;47.388;8.538;2022-07-09T11:24:34;25.70;84.00
3542;DHT22;1785;47.388;8.538;2022-07-09T11:27:04;25.80;83.10
3542;DHT22;1785;47.388;8.538;2022-07-09T11:29:30;25.80;82.70
3542;DHT22;1785;47.388;8.538;2022-07-09T11:31:57;25.90;82.90
3542;DHT22;1785;47.388;8.538;2022-07-09T11:34:23;25.70;81.00
3542;DHT22;1785;47.388;8.538;2022-07-09T11:36:51;25.70;80.80
3542;DHT22;1785;47.388;8.538;2022-07-09T11:39:25;25.50;81.60
3542;DHT22;1785;47.388;8.538;2022-07-09T11:41:52;25.70;80.60
3542;DHT22;1785;47.388;8.538;2022-07-09T11:44:23;25.70;81.80
3542;DHT22;1785;47.388;8.538;2022-07-09T11:47:04;25.80;82.30
3542;DHT22;1785;47.388;8.538;2022-07-09T11:49:37;26.10;81.40
3542;DHT22;1785;47.388;8.538;2022-07-09T11:52:04;26.30;80.30
3542;DHT22;1785;47.388;8.538;2022-07-09T11:54:30;26.40;80.40
3542;DHT22;1785;47.388;8.538;2022-07-09T11:56:57;26.60;79.70
3542;DHT22;1785;47.388;8.538;2022-07-09T11:59:26;26.70;79.40
3542;DHT22;1785;47.388;8.538;2022-07-09T12:01:53;26.70;79.30
3542;DHT22;1785;47.388;8.538;2022-07-09T12:04:21;26.90;78.10
3542;DHT22;1785;47.388;8.538;2022-07-09T12:06:48;26.70;78.70
3542;DHT22;1785;47.388;8.538;2022-07-09T12:09:14;26.70;78.30
3542;DHT22;1785;47.388;8.538;2022-07-09T12:11:42;26.30;76.50
3542;DHT22;1785;47.388;8.538;2022-07-09T12:14:08;26.30;78.80
3542;DHT22;1785;47.388;8.538;2022-07-09T12:16:35;26.30;78.90
3542;DHT22;1785;47.388;8.538;2022-07-09T12:19:01;26.60;78.70
3542;DHT22;1785;47.388;8.538;2022-07-09T12:21:28;26.80;77.70
3542;DHT22;1785;47.388;8.538;2022-07-09T12:23:54;26.80;78.20
3542;DHT22;1785;47.388;8.538;2022-07-09T12:26:20;26.90;77.10
3542;DHT22;1785;47.388;8.538;2022-07-09T12:28:46;27.00;77.10
3542;DHT22;1785;47.388;8.538;2022-07-09T12:31:12;27.00;78.40
3542;DHT22;1785;47.388;8.538;2022-07-09T12:33:38;27.00;77.70
3542;DHT22;1785;47.388;8.538;2022-07-09T12:36:05;27.10;77.90
3542;DHT22;1785;47.388;8.538;2022-07-09T12:38:31;27.30;77.00
3542;DHT22;1785;47.388;8.538;2022-07-09T12:40:57;27.50;75.00
3542;DHT22;1785;47.388;8.538;2022-07-09T12:43:23;27.50;75.20
3542;DHT22;1785;47.388;8.538;2022-07-09T12:45:50;27.40;74.60
3542;DHT22;1785;47.388;8.538;2022-07-09T12:48:16;27.20;75.40
3542;DHT22;1785;47.388;8.538;2022-07-09T12:50:42;27.40;74.20
3542;DHT22;1785;47.388;8.538;2022-07-09T12:53:08;27.50;74.20
3542;DHT22;1785;47.388;8.538;2022-07-09T12:55:35;27.30;74.90
3542;DHT22;1785;47.388;8.538;2022-07-09T12:58:01;27.30;75.10
3542;DHT22;1785;47.388;8.538;2022-07-09T13:00:27;27.50;75.60
3542;DHT22;1785;47.388;8.538;2022-07-09T13:02:53;27.70;75.00
3542;DHT22;1785;47.388;8.538;2022-07-09T13:05:19;27.80;74.90
3542;DHT22;1785;47.388;8.538;2022-07-09T13:07:45;27.90;73.60
3542;DHT22;1785;47.388;8.538;2022-07-09T13:10:11;28.10;72.80
3542;DHT22;1785;47.388;8.538;2022-07-09T13:12:39;28.20;73.80
3542;DHT22;1785;47.388;8.538;2022-07-09T13:15:06;27.90;72.00
3542;DHT22;1785;47.388;8.538;2022-07-09T13:17:32;27.90;72.30
3542;DHT22;1785;47.388;8.538;2022-07-09T13:19:58;28.10;73.00
3542;DHT22;1785;47.388;8.538;2022-07-09T13:22:25;28.10;71.80
3542;DHT22;1785;47.388;8.538;2022-07-09T13:24:51;27.70;71.80
3542;DHT22;1785;47.388;8.538;2022-07-09T13:27:17;27.90;72.30
3542;DHT22;1785;47.388;8.538;2022-07-09T13:29:44;28.00;71.90
3542;DHT22;1785;47.388;8.538;2022-07-09T13:32:10;28.20;70.40
3542;DHT22;1785;47.388;8.538;2022-07-09T13:34:36;28.40;70.50
3542;DHT22;1785;47.388;8.538;2022-07-09T13:37:03;28.30;68.60
3542;DHT22;1785;47.388;8.538;2022-07-09T13:39:29;28.30;67.90
3542;DHT22;1785;47.388;8.538;2022-07-09T13:41:55;28.10;67.30
3542;DHT22;1785;47.388;8.538;2022-07-09T13:44:21;27.90;69.50
3542;DHT22;1785;47.388;8.538;2022-07-09T13:46:48;28.30;70.20
3542;DHT22;1785;47.388;8.538;2022-07-09T13:49:14;28.40;70.00
3542;DHT22;1785;47.388;8.538;2022-07-09T13:51:40;28.60;69.20
3542;DHT22;1785;47.388;8.538;2022-07-09T13:54:06;28.70;68.00
3542;DHT22;1785;47.388;8.538;2022-07-09T13:56:33;28.90;68.70
3542;DHT22;1785;47.388;8.538;2022-07-09T13:58:59;28.80;68.10
3542;DHT22;1785;47.388;8.538;2022-07-09T14:01:25;28.90;69.10
3542;DHT22;1785;47.388;8.538;2022-07-09T14:03:52;29.20;68.00
3542;DHT22;1785;47.388;8.538;2022-07-09T14:06:20;29.20;68.90
3542;DHT22;1785;47.388;8.538;2022-07-09T14:08:46;29.30;67.20
3542;DHT22;1785;47.388;8.538;2022-07-09T14:11:12;29.20;67.80
3542;DHT22;1785;47.388;8.538;2022-07-09T14:13:38;29.20;68.10
3542;DHT22;1785;47.388;8.538;2022-07-09T14:16:05;29.30;68.20
3542;DHT22;1785;47.388;8.538;2022-07-09T14:18:31;29.30;67.60
3542;DHT22;1785;47.388;8.538;2022-07-09T14:20:59;29.20;67.80
3542;DHT22;1785;47.388;8.538;2022-07-09T14:23:25;29.20;66.30
3542;DHT22;1785;47.388;8.538;2022-07-09T14:25:51;29.30;67.10
3542;DHT22;1785;47.388;8.538;2022-07-09T14:28:17;29.70;67.80
3542;DHT22;1785;47.388;8.538;2022-07-09T14:30:43;29.80;65.80
3542;DHT22;1785;47.388;8.538;2022-07-09T14:33:10;29.80;65.00
3542;DHT22;1785;47.388;8.538;2022-07-09T14:35:36;29.60;65.30
3542;DHT22;1785;47.388;8.538;2022-07-09T14:38:03;29.20;66.20
3542;DHT22;1785;47.388;8.538;2022-07-09T14:40:29;29.20;67.30
3542;DHT22;1785;47.388;8.538;2022-07-09T14:42:55;29.40;66.10
3542;DHT22;1785;47.388;8.538;2022-07-09T14:45:21;29.40;66.70
3542;DHT22;1785;47.388;8.538;2022-07-09T14:47:49;29.60;67.50
3542;DHT22;1785;47.388;8.538;2022-07-09T14:50:15;29.80;66.90
3542;DHT22;1785;47.388;8.538;2022-07-09T14:52:43;30.00;66.00
3542;DHT22;1785;47.388;8.538;2022-07-09T14:55:11;29.90;67.10
3542;DHT22;1785;47.388;8.538;2022-07-09T14:57:37;29.90;66.20
3542;DHT22;1785;47.388;8.538;2022-07-09T15:00:04;29.80;67.20
3542;DHT22;1785;47.388;8.538;2022-07-09T15:02:30;29.70;68.30
3542;DHT22;1785;47.388;8.538;2022-07-09T15:04:56;29.90;67.10
3542;DHT22;1785;47.388;8.538;2022-07-09T15:07:23;29.60;66.10
3542;DHT22;1785;47.388;8.538;2022-07-09T15:09:49;29.60;66.30
3542;DHT22;1785;47.388;8.538;2022-07-09T15:12:16;29.90;67.70
3542;DHT22;1785;47.388;8.538;2022-07-09T15:14:43;30.20;65.70
3542;DHT22;1785;47.388;8.538;2022-07-09T15:17:09;30.20;65.70
3542;DHT22;1785;47.388;8.538;2022-07-09T15:19:35;30.00;65.70
3542;DHT22;1785;47.388;8.538;2022-07-09T15:22:01;30.20;66.20
3542;DHT22;1785;47.388;8.538;2022-07-09T15:24:27;30.40;65.30
3542;DHT22;1785;47.388;8.538;2022-07-09T15:26:54;30.50;65.10
3542;DHT22;1785;47.388;8.538;2022-07-09T15:29:20;30.70;65.00
3542;DHT22;1785;47.388;8.538;2022-07-09T15:31:47;31.10;64.70
3542;DHT22;1785;47.388;8.538;2022-07-09T15:34:13;31.30;65.40
3542;DHT22;1785;47.388;8.538;2022-07-09T15:36:39;31.40;64.90
3542;DHT22;1785;47.388;8.538;2022-07-09T15:39:05;31.50;63.50
3542;DHT22;1785;47.388;8.538;2022-07-09T15:41:31;31.30;64.00
3542;DHT22;1785;47.388;8.538;2022-07-09T15:43:59;31.10;63.60
3542;DHT22;1785;47.388;8.538;2022-07-09T15:46:27;30.70;64.90
3542;DHT22;1785;47.388;8.538;2022-07-09T15:48:53;30.30;63.80
3542;DHT22;1785;47.388;8.538;2022-07-09T15:51:20;30.30;64.80
3542;DHT22;1785;47.388;8.538;2022-07-09T15:53:46;30.30;64.70
3542;DHT22;1785;47.388;8.538;2022-07-09T15:56:12;30.30;65.40
3542;DHT22;1785;47.388;8.538;2022-07-09T15:58:38;30.50;66.40